createdAt,value
2023-11-12T00:00:43.904Z,99137.59
2023-11-12T00:02:16.025Z,99132.25
2023-11-12T00:03:48.205Z,99138.44
2023-11-12T00:05:21.007Z,99136.75
2023-11-12T00:06:52.962Z,99134.94
2023-11-12T00:08:24.806Z,99137.75
2023-11-12T00:09:56.740Z,99135.78
2023-11-12T00:11:30.039Z,99139.44
2023-11-12T00:13:01.976Z,99141.13
2023-11-12T00:14:33.882Z,99143.78
2023-11-12T00:16:05.912Z,99140.28
2023-11-12T00:17:39.154Z,99143.69
2023-11-12T00:19:11.030Z,99133.84
2023-11-12T00:20:42.963Z,99140.88
2023-11-12T00:22:14.821Z,99140.03
2023-11-12T00:23:46.677Z,99126.66
2023-11-12T00:25:18.644Z,99123.00
2023-11-12T00:26:50.587Z,99130.94
2023-11-12T00:28:23.631Z,99130.09
2023-11-12T00:29:55.587Z,99129.09
2023-11-12T00:31:27.435Z,99138.81
2023-11-12T00:33:00.344Z,99125.44
2023-11-12T00:34:32.282Z,99131.63
2023-11-12T00:36:05.750Z,99131.63
2023-11-12T00:37:37.801Z,99131.63
2023-11-12T00:39:12.716Z,99134.22
2023-11-12T00:40:46.689Z,99131.63
2023-11-12T00:42:18.961Z,99129.84
2023-11-12T00:43:51.494Z,99136.97
2023-11-12T00:45:24.083Z,99128.13
2023-11-12T00:46:56.180Z,99130.69
2023-11-12T00:48:31.331Z,99136.88
2023-11-12T00:50:04.613Z,99135.91
2023-11-12T00:51:37.179Z,99138.72
2023-11-12T00:53:09.061Z,99136.97
2023-11-12T00:54:41.028Z,99137.88
2023-11-12T00:56:12.968Z,99136.03
2023-11-12T00:57:45.246Z,99133.47
2023-11-12T00:59:18.399Z,99131.63
2023-11-12T01:00:50.371Z,99124.59
2023-11-12T01:02:22.924Z,99134.44
2023-11-12T01:03:54.976Z,99129.94
2023-11-12T01:05:26.980Z,99131.88
2023-11-12T01:06:58.886Z,99119.50
2023-11-12T01:08:31.795Z,99129.34
2023-11-12T01:10:05.206Z,99129.47
2023-11-12T01:11:38.811Z,99124.25
2023-11-12T01:13:11.533Z,99123.50
2023-11-12T01:14:44.138Z,99130.66
2023-11-12T01:16:16.866Z,99130.81
2023-11-12T01:17:48.815Z,99131.91
2023-11-12T01:19:21.032Z,99132.88
2023-11-12T01:20:52.976Z,99133.13
2023-11-12T01:22:25.347Z,99137.63
2023-11-12T01:23:57.737Z,99136.03
2023-11-12T01:25:30.050Z,99143.19
2023-11-12T01:27:02.557Z,99139.91
2023-11-12T01:28:35.749Z,99148.00
2023-11-12T01:30:08.899Z,99139.13
2023-11-12T01:31:40.878Z,99140.13
2023-11-12T01:33:13.170Z,99135.63
2023-11-12T01:34:45.090Z,99139.25
2023-11-12T01:36:17.501Z,99144.59
2023-11-12T01:37:49.521Z,99135.63
2023-11-12T01:39:21.452Z,99143.63
2023-11-12T01:40:54.146Z,99142.66
2023-11-12T01:42:26.654Z,99137.25
2023-11-12T01:43:58.665Z,99138.81
2023-11-12T01:45:30.578Z,99137.84
2023-11-12T01:47:02.504Z,99137.72
2023-11-12T01:48:35.337Z,99142.09
2023-11-12T01:50:09.002Z,99135.66
2023-11-12T01:51:41.658Z,99132.97
2023-11-12T01:53:15.755Z,99130.19
2023-11-12T01:54:47.821Z,99129.09
2023-11-12T01:56:21.761Z,99128.13
2023-11-12T01:57:54.664Z,99128.97
2023-11-12T01:59:28.120Z,99128.84
2023-11-12T02:01:00.502Z,99136.63
2023-11-12T02:02:36.259Z,99132.16
2023-11-12T02:04:08.897Z,99132.03
2023-11-12T02:05:41.242Z,99133.72
2023-11-12T02:07:15.132Z,99125.69
2023-11-12T02:08:47.489Z,99125.59
2023-11-12T02:10:19.483Z,99129.09
2023-11-12T02:11:53.434Z,99128.13
2023-11-12T02:13:25.471Z,99131.63
2023-11-12T02:14:57.440Z,99126.19
2023-11-12T02:16:29.716Z,99129.56
2023-11-12T02:18:02.336Z,99132.13
2023-11-12T02:19:34.254Z,99128.63
2023-11-12T02:21:06.328Z,99132.13
2023-11-12T02:22:39.199Z,99134.66
2023-11-12T02:24:11.097Z,99132.97
2023-11-12T02:25:45.354Z,99127.53
2023-11-12T02:27:17.230Z,99131.91
2023-11-12T02:28:49.122Z,99128.38
2023-11-12T02:30:21.239Z,99128.25
2023-11-12T02:31:54.134Z,99125.47
2023-11-12T02:33:29.349Z,99130.81
2023-11-12T02:35:03.925Z,99123.50
2023-11-12T02:36:36.717Z,99128.72
2023-11-12T02:38:08.650Z,99128.59
2023-11-12T02:39:43.805Z,99126.91
2023-11-12T02:41:15.681Z,99135.78
2023-11-12T02:42:49.304Z,99131.28
2023-11-12T02:44:21.348Z,99135.53
2023-11-12T02:45:53.224Z,99128.34
2023-11-12T02:47:25.082Z,99131.75
2023-11-12T02:49:09.196Z,99132.75
2023-11-12T02:50:41.097Z,99130.78
2023-11-12T02:52:13.226Z,99123.59
2023-11-12T02:53:45.080Z,99132.47
2023-11-12T02:55:18.190Z,99134.19
2023-11-12T02:56:50.140Z,99124.34
2023-11-12T02:58:22.819Z,99123.50
2023-11-12T02:59:55.529Z,99124.22
2023-11-12T03:01:27.522Z,99122.41
2023-11-12T03:03:02.096Z,99127.63
2023-11-12T03:04:34.417Z,99124.94
2023-11-12T03:06:06.601Z,99119.59
2023-11-12T03:07:38.456Z,99126.63
2023-11-12T03:09:10.953Z,99122.16
2023-11-12T03:10:43.701Z,99126.38
2023-11-12T03:12:16.872Z,99119.34
2023-11-12T03:13:49.808Z,99126.28
2023-11-12T03:15:21.749Z,99122.75
2023-11-12T03:16:53.610Z,99120.94
2023-11-12T03:18:25.515Z,99127.97
2023-11-12T03:19:58.454Z,99128.81
2023-11-12T03:21:30.333Z,99125.28
2023-11-12T03:23:02.292Z,99127.00
2023-11-12T03:24:36.442Z,99128.81
2023-11-12T03:26:08.336Z,99117.41
2023-11-12T03:27:40.425Z,99125.28
2023-11-12T03:29:12.987Z,99129.81
2023-11-12T03:30:45.398Z,99128.94
2023-11-12T03:32:17.294Z,99120.94
2023-11-12T03:33:49.590Z,99128.09
2023-11-12T03:35:21.512Z,99128.94
2023-11-12T03:36:53.560Z,99128.94
2023-11-12T03:38:25.463Z,99135.16
2023-11-12T03:39:57.967Z,99137.94
2023-11-12T03:41:29.943Z,99138.91
2023-11-12T03:43:03.425Z,99133.56
2023-11-12T03:44:35.282Z,99138.91
2023-11-12T03:46:08.577Z,99135.25
2023-11-12T03:47:40.502Z,99131.72
2023-11-12T03:49:13.064Z,99137.09
2023-11-12T03:50:45.202Z,99143.28
2023-11-12T03:52:17.108Z,99136.38
2023-11-12T03:53:49.017Z,99144.41
2023-11-12T03:55:20.875Z,99147.19
2023-11-12T03:56:52.850Z,99148.03
2023-11-12T03:58:25.132Z,99141.00
2023-11-12T03:59:57.021Z,99144.66
2023-11-12T04:01:29.030Z,99142.69
2023-11-12T04:03:01.149Z,99149.00
2023-11-12T04:04:33.677Z,99144.66
2023-11-12T04:06:06.068Z,99152.66
2023-11-12T04:07:38.807Z,99150.84
2023-11-12T04:09:10.952Z,99142.91
2023-11-12T04:10:42.836Z,99149.16
2023-11-12T04:12:14.906Z,99144.75
2023-11-12T04:13:46.856Z,99143.91
2023-11-12T04:15:18.785Z,99146.59
2023-11-12T04:16:50.729Z,99153.88
2023-11-12T04:18:22.646Z,99142.47
2023-11-12T04:19:55.135Z,99150.47
2023-11-12T04:21:27.138Z,99151.56
2023-11-12T04:23:00.117Z,99154.38
2023-11-12T04:24:32.305Z,99148.16
2023-11-12T04:26:04.430Z,99152.78
2023-11-12T04:27:39.336Z,99151.94
2023-11-12T04:29:14.665Z,99153.88
2023-11-12T04:30:46.638Z,99156.69
2023-11-12T04:32:19.017Z,99156.81
2023-11-12T04:33:51.176Z,99143.56
2023-11-12T04:35:23.420Z,99152.53
2023-11-12T04:36:57.441Z,99157.88
2023-11-12T04:38:29.340Z,99159.84
2023-11-12T04:40:01.580Z,99151.94
2023-11-12T04:41:34.159Z,99161.78
2023-11-12T04:43:06.895Z,99159.97
2023-11-12T04:44:38.752Z,99154.75
2023-11-12T04:46:12.540Z,99159.25
2023-11-12T04:47:44.903Z,99153.91
2023-11-12T04:49:16.989Z,99153.03
2023-11-12T04:50:48.886Z,99154.84
2023-11-12T04:52:21.814Z,99157.53
2023-11-12T04:53:53.995Z,99154.00
2023-11-12T04:55:25.934Z,99150.50
2023-11-12T04:56:57.787Z,99152.31
2023-11-12T04:58:29.947Z,99155.84
2023-11-12T05:00:02.899Z,99158.50
2023-11-12T05:01:34.935Z,99157.75
2023-11-12T05:03:06.896Z,99162.16
2023-11-12T05:04:38.745Z,99158.59
2023-11-12T05:06:10.727Z,99152.41
2023-11-12T05:07:42.647Z,99163.09
2023-11-12T05:09:15.112Z,99161.41
2023-11-12T05:10:46.973Z,99159.59
2023-11-12T05:12:18.969Z,99161.41
2023-11-12T05:13:51.084Z,99164.09
2023-11-12T05:15:22.958Z,99164.09
2023-11-12T05:16:54.848Z,99162.41
2023-11-12T05:18:26.746Z,99166.75
2023-11-12T05:19:58.668Z,99174.78
2023-11-12T05:21:30.534Z,99172.94
2023-11-12T05:23:03.178Z,99177.44
2023-11-12T05:24:38.618Z,99178.44
2023-11-12T05:26:10.494Z,99183.66
2023-11-12T05:27:42.496Z,99181.81
2023-11-12T05:29:14.380Z,99186.31
2023-11-12T05:30:46.322Z,99182.81
2023-11-12T05:32:18.274Z,99189.00
2023-11-12T05:33:50.122Z,99188.00
2023-11-12T05:35:22.024Z,99189.84
2023-11-12T05:36:53.871Z,99185.34
2023-11-12T05:38:26.801Z,99190.69
2023-11-12T05:39:58.874Z,99189.72
2023-11-12T05:41:30.732Z,99192.41
2023-11-12T05:43:02.614Z,99189.72
2023-11-12T05:44:34.483Z,99192.41
2023-11-12T05:46:06.486Z,99187.91
2023-11-12T05:47:38.391Z,99192.28
2023-11-12T05:49:10.332Z,99193.25
2023-11-12T05:50:42.170Z,99195.78
2023-11-12T05:52:14.013Z,99194.00
2023-11-12T05:53:45.905Z,99194.09
2023-11-12T05:55:17.771Z,99189.72
2023-11-12T05:56:49.644Z,99195.94
2023-11-12T05:58:22.060Z,99194.09
2023-11-12T05:59:54.215Z,99198.59
2023-11-12T06:01:26.160Z,99197.63
2023-11-12T06:02:58.533Z,99202.00
2023-11-12T06:04:30.604Z,99202.13
2023-11-12T06:06:02.484Z,99198.59
2023-11-12T06:07:34.571Z,99203.94
2023-11-12T06:09:08.668Z,99208.31
2023-11-12T06:10:44.533Z,99208.31
2023-11-12T06:12:17.012Z,99209.28
2023-11-12T06:13:48.885Z,99203.94
2023-11-12T06:15:27.239Z,99216.31
2023-11-12T06:17:00.386Z,99218.28
2023-11-12T06:18:33.104Z,99220.81
2023-11-12T06:20:05.363Z,99222.66
2023-11-12T06:21:37.436Z,99221.81
2023-11-12T06:23:09.448Z,99222.66
2023-11-12T06:24:41.579Z,99221.69
2023-11-12T06:26:13.878Z,99221.69
2023-11-12T06:27:45.858Z,99226.16
2023-11-12T06:29:18.394Z,99225.31
2023-11-12T06:30:52.426Z,99226.06
2023-11-12T06:32:24.347Z,99226.06
2023-11-12T06:33:56.340Z,99223.41
2023-11-12T06:35:28.434Z,99221.44
2023-11-12T06:37:00.288Z,99230.31
2023-11-12T06:38:32.123Z,99224.97
2023-11-12T06:40:04.744Z,99229.34
2023-11-12T06:41:36.965Z,99232.88
2023-11-12T06:43:08.928Z,99235.53
2023-11-12T06:44:40.857Z,99239.81
2023-11-12T06:46:12.771Z,99241.50
2023-11-12T06:47:44.661Z,99240.53
2023-11-12T06:49:16.563Z,99240.53
2023-11-12T06:50:48.855Z,99241.25
2023-11-12T06:52:20.862Z,99243.94
2023-11-12T06:53:53.091Z,99243.81
2023-11-12T06:55:26.584Z,99245.53
2023-11-12T06:56:58.962Z,99247.22
2023-11-12T06:58:31.157Z,99250.63
2023-11-12T07:00:04.619Z,99251.47
2023-11-12T07:01:38.957Z,99254.03
2023-11-12T07:03:11.090Z,99252.19
2023-11-12T07:04:43.024Z,99252.09
2023-11-12T07:06:14.922Z,99257.19
2023-11-12T07:07:46.971Z,99262.53
2023-11-12T07:09:18.918Z,99262.31
2023-11-12T07:10:50.798Z,99261.31
2023-11-12T07:12:22.687Z,99254.16
2023-11-12T07:13:55.626Z,99259.41
2023-11-12T07:15:28.105Z,99254.75
2023-11-12T07:16:59.993Z,99260.72
2023-11-12T07:18:39.052Z,99262.31
2023-11-12T07:20:18.565Z,99257.69
2023-11-12T07:21:50.467Z,99260.13
2023-11-12T07:23:22.666Z,99262.56
2023-11-12T07:24:57.241Z,99251.63
2023-11-12T07:26:30.239Z,99261.19
2023-11-12T07:28:02.082Z,99259.25
2023-11-12T07:29:34.000Z,99265.22
2023-11-12T07:31:05.861Z,99254.28
2023-11-12T07:32:38.134Z,99258.53
2023-11-12T07:34:10.386Z,99257.44
2023-11-12T07:35:42.249Z,99260.59
2023-11-12T07:37:14.473Z,99269.22
2023-11-12T07:38:49.520Z,99262.66
2023-11-12T07:40:21.516Z,99261.53
2023-11-12T07:41:53.371Z,99258.38
2023-11-12T07:43:28.856Z,99269.56
2023-11-12T07:45:06.954Z,99259.31
2023-11-12T07:46:42.678Z,99257.13
2023-11-12T07:48:15.539Z,99262.00
2023-11-12T07:49:47.546Z,99262.44
2023-11-12T07:51:19.496Z,99258.41
2023-11-12T07:52:51.547Z,99266.81
2023-11-12T07:54:23.452Z,99258.41
2023-11-12T07:55:55.341Z,99261.44
2023-11-12T07:57:27.231Z,99264.59
2023-11-12T07:59:00.468Z,99266.91
2023-11-12T08:00:33.638Z,99260.16
2023-11-12T08:02:05.629Z,99261.63
2023-11-12T08:03:37.907Z,99262.06
2023-11-12T08:05:10.095Z,99268.00
2023-11-12T08:06:45.606Z,99272.03
2023-11-12T08:08:17.525Z,99273.44
2023-11-12T08:09:49.819Z,99271.25
2023-11-12T08:11:21.961Z,99278.03
2023-11-12T08:12:53.841Z,99282.03
2023-11-12T08:14:28.555Z,99273.59
2023-11-12T08:16:00.430Z,99280.13
2023-11-12T08:17:32.684Z,99276.22
2023-11-12T08:19:04.741Z,99275.81
2023-11-12T08:20:37.619Z,99280.81
2023-11-12T08:22:09.565Z,99275.19
2023-11-12T08:23:41.698Z,99286.34
2023-11-12T08:25:14.210Z,99279.72
2023-11-12T08:26:46.146Z,99279.34
2023-11-12T08:28:22.850Z,99283.31
2023-11-12T08:29:55.385Z,99286.44
2023-11-12T08:31:27.467Z,99284.22
2023-11-12T08:32:59.514Z,99288.44
2023-11-12T08:34:31.411Z,99277.59
2023-11-12T08:36:04.872Z,99281.72
2023-11-12T08:37:37.457Z,99285.22
2023-11-12T08:39:10.874Z,99284.13
2023-11-12T08:40:44.464Z,99277.75
2023-11-12T08:42:16.380Z,99277.75
2023-11-12T08:43:48.263Z,99282.16
2023-11-12T08:45:21.009Z,99284.00
2023-11-12T08:46:53.711Z,99283.00
2023-11-12T08:48:32.957Z,99283.13
2023-11-12T08:50:06.056Z,99284.97
2023-11-12T08:51:38.909Z,99288.50
2023-11-12T08:53:10.766Z,99283.28
2023-11-12T08:54:43.352Z,99283.41
2023-11-12T08:56:16.325Z,99290.59
2023-11-12T08:57:49.071Z,99288.06
2023-11-12T08:59:21.296Z,99289.06
2023-11-12T09:00:53.311Z,99284.66
2023-11-12T09:02:25.289Z,99286.50
2023-11-12T09:03:57.242Z,99289.34
2023-11-12T09:05:29.138Z,99289.59
2023-11-12T09:07:01.672Z,99292.41
2023-11-12T09:08:34.367Z,99299.03
2023-11-12T09:10:06.633Z,99305.22
2023-11-12T09:11:38.536Z,99295.75
2023-11-12T09:13:13.440Z,99304.75
2023-11-12T09:14:45.329Z,99296.03
2023-11-12T09:16:17.424Z,99300.66
2023-11-12T09:17:49.352Z,99295.56
2023-11-12T09:19:21.209Z,99298.38
2023-11-12T09:20:53.950Z,99298.66
2023-11-12T09:22:25.814Z,99297.06
2023-11-12T09:23:58.626Z,99310.63
2023-11-12T09:25:30.701Z,99301.00
2023-11-12T09:27:02.706Z,99307.47
2023-11-12T09:28:34.626Z,99313.00
2023-11-12T09:30:09.714Z,99301.53
2023-11-12T09:31:41.678Z,99303.47
2023-11-12T09:33:13.860Z,99312.53
2023-11-12T09:34:45.738Z,99303.88
2023-11-12T09:36:18.805Z,99309.25
2023-11-12T09:37:51.552Z,99307.69
2023-11-12T09:39:24.963Z,99309.63
2023-11-12T09:41:00.005Z,99308.09
2023-11-12T09:42:32.654Z,99308.09
2023-11-12T09:44:05.820Z,99312.59
2023-11-12T09:45:40.496Z,99321.59
2023-11-12T09:47:39.017Z,99319.19
2023-11-12T09:49:11.675Z,99318.06
2023-11-12T09:50:45.031Z,99317.97
2023-11-12T09:52:17.103Z,99317.97
2023-11-12T09:53:52.042Z,99326.72
2023-11-12T09:55:24.138Z,99319.66
2023-11-12T09:57:06.346Z,99314.03
2023-11-12T09:58:44.269Z,99312.03
2023-11-12T10:00:18.378Z,99315.59
2023-11-12T10:01:51.310Z,99310.09
2023-11-12T10:03:23.787Z,99315.47
2023-11-12T10:04:59.781Z,99316.91
2023-11-12T10:06:31.950Z,99320.31
2023-11-12T10:08:06.075Z,99309.31
2023-11-12T10:09:38.605Z,99312.72
2023-11-12T10:11:21.541Z,99311.75
2023-11-12T10:12:56.464Z,99316.84
2023-11-12T10:14:28.396Z,99312.19
2023-11-12T10:16:01.446Z,99310.22
2023-11-12T10:17:45.226Z,99317.28
2023-11-12T10:19:17.116Z,99313.38
2023-11-12T10:20:50.794Z,99318.47
2023-11-12T10:22:38.570Z,99321.00
2023-11-12T10:24:10.726Z,99321.59
2023-11-12T10:25:45.464Z,99326.59
2023-11-12T10:27:17.387Z,99317.53
2023-11-12T10:28:49.343Z,99318.13
2023-11-12T10:30:24.436Z,99308.97
2023-11-12T10:31:58.596Z,99321.13
2023-11-12T10:33:30.653Z,99325.38
2023-11-12T10:35:03.723Z,99312.66
2023-11-12T10:36:35.597Z,99318.63
2023-11-12T10:38:07.788Z,99327.25
2023-11-12T10:39:45.015Z,99316.38
2023-11-12T10:41:17.209Z,99319.78
2023-11-12T10:42:49.871Z,99317.00
2023-11-12T10:44:22.007Z,99316.72
2023-11-12T10:45:58.981Z,99315.72
2023-11-12T10:47:31.703Z,99306.44
2023-11-12T10:49:06.015Z,99312.50
2023-11-12T10:50:39.543Z,99317.59
2023-11-12T10:52:13.214Z,99308.44
2023-11-12T10:53:46.909Z,99312.69
2023-11-12T10:55:19.373Z,99319.38
2023-11-12T10:56:53.080Z,99315.53
2023-11-12T10:58:29.096Z,99311.59
2023-11-12T11:00:03.733Z,99318.53
2023-11-12T11:01:37.621Z,99323.50
2023-11-12T11:03:10.374Z,99322.22
2023-11-12T11:04:46.822Z,99319.28
2023-11-12T11:06:19.158Z,99320.56
2023-11-12T11:07:51.126Z,99319.16
2023-11-12T11:09:24.281Z,99318.59
2023-11-12T11:10:56.427Z,99322.84
2023-11-12T11:12:28.972Z,99321.72
2023-11-12T11:14:30.631Z,99325.41
2023-11-12T11:16:03.089Z,99324.13
2023-11-12T11:17:40.139Z,99327.09
2023-11-12T11:19:12.084Z,99332.47
2023-11-12T11:21:16.870Z,99327.53
2023-11-12T11:22:48.750Z,99332.03
2023-11-12T11:24:44.866Z,99338.94
2023-11-12T11:26:27.644Z,99333.56
2023-11-12T11:28:19.679Z,99335.84
2023-11-12T11:30:07.557Z,99345.88
2023-11-12T11:32:02.344Z,99341.22
2023-11-12T11:33:47.502Z,99346.88
2023-11-12T11:35:20.252Z,99337.81
2023-11-12T11:37:03.355Z,99348.56
2023-11-12T11:38:35.309Z,99335.13
2023-11-12T11:40:34.070Z,99336.13
2023-11-12T11:42:07.753Z,99338.25
2023-11-12T11:43:39.664Z,99338.94
2023-11-12T11:45:11.618Z,99339.53
2023-11-12T11:47:16.944Z,99341.38
2023-11-12T11:48:49.158Z,99337.84
2023-11-12T11:50:20.992Z,99341.09
2023-11-12T11:51:52.964Z,99331.78
2023-11-12T11:53:27.347Z,99332.34
2023-11-12T11:55:03.952Z,99326.56
2023-11-12T11:56:37.906Z,99331.50
2023-11-12T11:58:10.630Z,99322.31
2023-11-12T11:59:45.107Z,99326.28
2023-11-12T12:01:17.094Z,99324.16
2023-11-12T12:02:49.057Z,99317.50
2023-11-12T12:04:21.172Z,99317.09
2023-11-12T12:05:54.178Z,99323.19
2023-11-12T12:07:33.440Z,99324.75
2023-11-12T12:09:05.695Z,99327.88
2023-11-12T12:10:40.399Z,99326.72
2023-11-12T12:12:12.334Z,99323.72
2023-11-12T12:14:02.337Z,99323.72
2023-11-12T12:15:34.722Z,99321.22
2023-11-12T12:17:10.095Z,99314.56
2023-11-12T12:18:42.867Z,99313.16
2023-11-12T12:20:14.711Z,99316.94
2023-11-12T12:21:48.093Z,99317.94
2023-11-12T12:23:21.641Z,99320.91
2023-11-12T12:24:54.496Z,99314.06
2023-11-12T12:26:29.504Z,99323.41
2023-11-12T12:28:01.397Z,99328.22
2023-11-12T12:29:34.356Z,99330.44
2023-11-12T12:31:06.379Z,99325.66
2023-11-12T12:32:38.498Z,99328.72
2023-11-12T12:34:11.276Z,99324.75
2023-11-12T12:35:43.283Z,99329.00
2023-11-12T12:37:20.920Z,99325.28
2023-11-12T12:39:00.328Z,99328.69
2023-11-12T12:40:32.313Z,99325.00
2023-11-12T12:42:05.074Z,99323.31
2023-11-12T12:43:47.402Z,99316.38
2023-11-12T12:45:19.787Z,99321.47
2023-11-12T12:46:56.647Z,99311.81
2023-11-12T12:48:31.028Z,99316.53
2023-11-12T12:50:33.873Z,99321.66
2023-11-12T12:52:08.447Z,99314.25
2023-11-12T12:53:40.337Z,99315.72
2023-11-12T12:55:20.124Z,99313.44
2023-11-12T12:56:52.189Z,99316.59
2023-11-12T12:58:38.805Z,99312.78
2023-11-12T13:00:13.236Z,99310.22
2023-11-12T13:01:47.908Z,99314.22
2023-11-12T13:03:28.132Z,99308.13
2023-11-12T13:05:01.482Z,99313.97
2023-11-12T13:06:34.554Z,99314.97
2023-11-12T13:08:09.441Z,99310.72
2023-11-12T13:09:42.742Z,99314.53
2023-11-12T13:11:17.692Z,99312.84
2023-11-12T13:12:51.895Z,99322.91
2023-11-12T13:14:24.731Z,99312.13
2023-11-12T13:15:56.821Z,99309.31
2023-11-12T13:17:28.698Z,99319.19
2023-11-12T13:19:01.614Z,99314.69
2023-11-12T13:20:33.860Z,99319.19
2023-11-12T13:22:07.754Z,99313.81
2023-11-12T13:23:40.048Z,99311.84
2023-11-12T13:25:13.757Z,99309.31
2023-11-12T13:26:49.433Z,99312.97
2023-11-12T13:28:22.662Z,99320.34
2023-11-12T13:29:54.698Z,99321.19
2023-11-12T13:31:27.000Z,99331.25
2023-11-12T13:32:58.897Z,99319.78
2023-11-12T13:34:30.819Z,99329.69
2023-11-12T13:36:04.178Z,99320.94
2023-11-12T13:37:36.691Z,99328.16
2023-11-12T13:39:09.918Z,99335.50
2023-11-12T13:40:41.850Z,99323.91
2023-11-12T13:42:13.713Z,99326.88
2023-11-12T13:43:45.562Z,99331.41
2023-11-12T13:45:19.721Z,99319.22
2023-11-12T13:46:54.693Z,99322.19
2023-11-12T13:48:26.787Z,99325.88
2023-11-12T13:49:58.649Z,99327.88
2023-11-12T13:51:30.644Z,99335.25
2023-11-12T13:53:10.367Z,99330.13
2023-11-12T13:54:43.340Z,99339.19
2023-11-12T13:56:15.490Z,99344.69
2023-11-12T13:57:48.802Z,99344.97
2023-11-12T13:59:22.297Z,99338.03
2023-11-12T14:00:54.731Z,99350.06
2023-11-12T14:02:28.199Z,99340.44
2023-11-12T14:04:00.282Z,99346.97
2023-11-12T14:05:33.662Z,99345.53
2023-11-12T14:07:06.979Z,99348.50
2023-11-12T14:08:38.910Z,99354.16
2023-11-12T14:10:13.387Z,99350.06
2023-11-12T14:11:45.221Z,99352.31
2023-11-12T14:13:17.061Z,99352.44
2023-11-12T14:14:48.923Z,99350.19
2023-11-12T14:16:24.723Z,99351.44
2023-11-12T14:17:56.643Z,99348.19
2023-11-12T14:19:28.698Z,99352.97
2023-11-12T14:21:00.553Z,99352.28
2023-11-12T14:22:32.438Z,99352.69
2023-11-12T14:24:04.603Z,99353.13
2023-11-12T14:25:37.155Z,99353.38
2023-11-12T14:27:09.082Z,99358.19
2023-11-12T14:28:42.640Z,99360.28
2023-11-12T14:30:15.047Z,99360.41
2023-11-12T14:31:47.568Z,99357.16
2023-11-12T14:33:19.647Z,99364.66
2023-11-12T14:34:51.641Z,99365.75
2023-11-12T14:36:26.297Z,99366.88
2023-11-12T14:38:00.692Z,99360.91
2023-11-12T14:39:32.699Z,99362.06
2023-11-12T14:41:04.747Z,99358.66
2023-11-12T14:42:39.396Z,99366.13
2023-11-12T14:44:11.400Z,99361.88
2023-11-12T14:45:44.677Z,99362.88
2023-11-12T14:47:18.143Z,99369.47
2023-11-12T14:48:51.020Z,99369.63
2023-11-12T14:50:23.253Z,99370.88
2023-11-12T14:51:55.273Z,99363.94
2023-11-12T14:53:27.918Z,99366.75
2023-11-12T14:55:00.093Z,99361.78
2023-11-12T14:56:37.727Z,99359.34
2023-11-12T14:58:09.736Z,99361.28
2023-11-12T14:59:41.754Z,99359.75
2023-11-12T15:01:14.127Z,99366.06
2023-11-12T15:02:47.548Z,99370.00
2023-11-12T15:04:19.562Z,99361.53
2023-11-12T15:05:51.451Z,99360.81
2023-11-12T15:07:23.331Z,99377.16
2023-11-12T15:08:55.273Z,99372.06
2023-11-12T15:10:27.230Z,99369.63
2023-11-12T15:12:01.315Z,99375.25
2023-11-12T15:13:33.279Z,99375.53
2023-11-12T15:15:09.454Z,99378.47
2023-11-12T15:16:42.867Z,99369.84
2023-11-12T15:18:15.683Z,99376.31
2023-11-12T15:19:48.132Z,99375.72
2023-11-12T15:21:20.008Z,99375.13
2023-11-12T15:22:52.602Z,99378.81
2023-11-12T15:24:25.204Z,99375.53
2023-11-12T15:25:57.053Z,99377.47
2023-11-12T15:27:29.023Z,99382.25
2023-11-12T15:29:02.957Z,99389.56
2023-11-12T15:30:35.322Z,99382.66
2023-11-12T15:32:09.371Z,99386.56
2023-11-12T15:33:42.533Z,99390.38
2023-11-12T15:35:16.085Z,99395.00
2023-11-12T15:36:49.078Z,99392.72
2023-11-12T15:38:21.092Z,99390.28
2023-11-12T15:39:54.042Z,99389.66
2023-11-12T15:41:26.050Z,99389.94
2023-11-12T15:42:58.356Z,99392.88
2023-11-12T15:44:30.345Z,99387.88
2023-11-12T15:46:06.163Z,99398.75
2023-11-12T15:47:39.449Z,99392.88
2023-11-12T15:49:12.006Z,99397.50
2023-11-12T15:50:44.617Z,99398.75
2023-11-12T15:52:16.808Z,99400.72
2023-11-12T15:53:48.738Z,99401.94
2023-11-12T15:55:21.026Z,99402.16
2023-11-12T15:56:53.013Z,99409.50
2023-11-12T15:58:26.321Z,99407.19
2023-11-12T15:59:58.319Z,99408.31
2023-11-12T16:01:30.370Z,99413.91
2023-11-12T16:03:09.219Z,99421.22
2023-11-12T16:04:49.141Z,99416.94
2023-11-12T16:06:21.156Z,99418.03
2023-11-12T16:07:53.111Z,99418.25
2023-11-12T16:09:26.072Z,99422.91
2023-11-12T16:10:58.695Z,99423.00
2023-11-12T16:12:30.696Z,99423.13
2023-11-12T16:14:03.167Z,99427.75
2023-11-12T16:15:35.578Z,99427.91
2023-11-12T16:17:07.571Z,99434.34
2023-11-12T16:18:39.548Z,99430.81
2023-11-12T16:20:13.911Z,99429.97
2023-11-12T16:21:47.965Z,99427.53
2023-11-12T16:23:21.455Z,99423.13
2023-11-12T16:24:53.437Z,99427.88
2023-11-12T16:26:25.353Z,99429.72
2023-11-12T16:27:57.200Z,99429.84
2023-11-12T16:29:29.409Z,99427.28
2023-11-12T16:31:03.421Z,99433.47
2023-11-12T16:32:37.543Z,99430.94
2023-11-12T16:34:10.055Z,99435.44
2023-11-12T16:35:42.130Z,99440.06
2023-11-12T16:37:14.237Z,99441.88
2023-11-12T16:38:46.793Z,99439.34
2023-11-12T16:40:20.219Z,99435.78
2023-11-12T16:41:52.664Z,99442.13
2023-11-12T16:43:24.547Z,99441.28
2023-11-12T16:44:56.674Z,99440.44
2023-11-12T16:46:33.102Z,99444.06
2023-11-12T16:48:05.870Z,99441.50
2023-11-12T16:49:38.820Z,99440.66
2023-11-12T16:51:10.768Z,99452.31
2023-11-12T16:52:43.283Z,99444.56
2023-11-12T16:54:15.359Z,99446.34
2023-11-12T16:55:47.613Z,99448.19
2023-11-12T16:57:19.561Z,99451.94
2023-11-12T16:58:51.547Z,99450.25
2023-11-12T17:00:23.594Z,99452.09
2023-11-12T17:01:55.608Z,99456.59
2023-11-12T17:03:27.747Z,99463.78
2023-11-12T17:04:59.823Z,99465.47
2023-11-12T17:06:31.831Z,99461.09
2023-11-12T17:08:07.322Z,99461.94
2023-11-12T17:09:46.333Z,99468.16
2023-11-12T17:11:18.360Z,99466.44
2023-11-12T17:12:52.346Z,99466.44
2023-11-12T17:14:24.322Z,99467.16
2023-11-12T17:15:56.924Z,99469.00
2023-11-12T17:17:30.770Z,99469.13
2023-11-12T17:19:02.845Z,99469.84
2023-11-12T17:20:34.932Z,99473.50
2023-11-12T17:22:07.950Z,99468.16
2023-11-12T17:23:39.921Z,99469.00
2023-11-12T17:25:13.414Z,99470.06
2023-11-12T17:26:46.981Z,99469.13
2023-11-12T17:28:19.314Z,99476.19
2023-11-12T17:29:52.452Z,99475.34
2023-11-12T17:31:24.329Z,99479.84
2023-11-12T17:32:57.005Z,99482.50
2023-11-12T17:34:28.955Z,99477.25
2023-11-12T17:36:00.883Z,99486.97
2023-11-12T17:37:34.159Z,99482.75
2023-11-12T17:39:06.111Z,99481.91
2023-11-12T17:40:38.111Z,99479.31
2023-11-12T17:42:10.610Z,99480.31
2023-11-12T17:43:42.600Z,99474.22
2023-11-12T17:45:14.531Z,99477.88
2023-11-12T17:46:46.636Z,99476.13
2023-11-12T17:48:19.408Z,99470.91
2023-11-12T17:49:56.912Z,99473.72
2023-11-12T17:51:29.967Z,99470.16
2023-11-12T17:53:02.008Z,99473.81
2023-11-12T17:54:36.128Z,99479.31
2023-11-12T17:56:11.155Z,99486.34
2023-11-12T17:57:43.432Z,99484.91
2023-11-12T17:59:15.542Z,99471.63
2023-11-12T18:00:47.633Z,99480.50
2023-11-12T18:02:19.698Z,99484.16
2023-11-12T18:03:55.480Z,99473.44
2023-11-12T18:05:27.684Z,99477.94
2023-11-12T18:06:59.789Z,99481.59
2023-11-12T18:08:31.993Z,99482.69
2023-11-12T18:10:05.054Z,99483.41
2023-11-12T18:11:37.504Z,99488.03
2023-11-12T18:13:09.818Z,99488.88
2023-11-12T18:14:41.775Z,99488.88
2023-11-12T18:16:13.861Z,99481.84